DLH71X EDDF-LFMN
Flight info
| Callsign | DLH71X |
|---|---|
| Flight time | 1h 10m |
| Altitude | 31000 |
| Route | ANEKI2L/18 ANEKI Y163 NATOR/N0461F390 DCT TRA DCT RIPUS DCT GERSA DCT SOSON DCT ODINA DCT ENOBA/N0390F190 Z185 BORDI |
| Aircraft | A343/H-SDE2E3FGHIJ4J5M1RWXY/LB1D1 |
Departure
| Time | 2026-04-16 21:53 |
|---|---|
| Airport | Frankfurt Main Airport (EDDF) |
Arrival
| Time | 2026-04-16 23:03 |
|---|---|
| Airport | Nice-Côte d'Azur Airport (LFMN) |
| Time | Latitude | Longitude | Altitude | Speed | Heading |
|---|---|---|---|---|---|
| 2026-04-16 21:21 | 50.04544 | 8.56742 | 369 ft | 0 kts | 295° |
| 2026-04-16 21:39 | 50.04541 | 8.56754 | 367 ft | 4 kts | 296° |
| 2026-04-16 21:39 | 50.04530 | 8.56791 | 366 ft | 5 kts | 278° |
| 2026-04-16 21:39 | 50.04533 | 8.56829 | 368 ft | 4 kts | 253° |
| 2026-04-16 21:40 | 50.04542 | 8.56868 | 369 ft | 4 kts | 236° |
| 2026-04-16 21:40 | 50.04561 | 8.56894 | 366 ft | 4 kts | 197° |
| 2026-04-16 21:40 | 50.04557 | 8.56893 | 365 ft | 4 kts | 193° |
| 2026-04-16 21:40 | 50.04538 | 8.56887 | 367 ft | 0 kts | 193° |
| 2026-04-16 21:45 | 50.04535 | 8.56886 | 367 ft | 0 kts | 193° |
| 2026-04-16 21:45 | 50.04526 | 8.56882 | 366 ft | 2 kts | 193° |
| 2026-04-16 21:45 | 50.04507 | 8.56875 | 367 ft | 4 kts | 193° |
| 2026-04-16 21:46 | 50.04480 | 8.56860 | 369 ft | 6 kts | 205° |
| 2026-04-16 21:46 | 50.04445 | 8.56798 | 370 ft | 11 kts | 243° |
| 2026-04-16 21:46 | 50.04408 | 8.56646 | 367 ft | 17 kts | 249° |
| 2026-04-16 21:46 | 50.04364 | 8.56463 | 366 ft | 19 kts | 249° |
| 2026-04-16 21:47 | 50.04314 | 8.56256 | 365 ft | 21 kts | 249° |
| 2026-04-16 21:47 | 50.04262 | 8.56036 | 366 ft | 19 kts | 250° |
| 2026-04-16 21:47 | 50.04223 | 8.55871 | 365 ft | 17 kts | 249° |
| 2026-04-16 21:47 | 50.04179 | 8.55688 | 362 ft | 19 kts | 249° |
| 2026-04-16 21:48 | 50.04129 | 8.55483 | 357 ft | 21 kts | 249° |
| 2026-04-16 21:48 | 50.04080 | 8.55276 | 364 ft | 21 kts | 250° |
| 2026-04-16 21:48 | 50.04029 | 8.55064 | 363 ft | 21 kts | 249° |
| 2026-04-16 21:48 | 50.03980 | 8.54857 | 365 ft | 23 kts | 250° |
| 2026-04-16 21:49 | 50.03928 | 8.54637 | 359 ft | 24 kts | 249° |
| 2026-04-16 21:49 | 50.03863 | 8.54382 | 360 ft | 24 kts | 243° |
| 2026-04-16 21:49 | 50.03784 | 8.54170 | 354 ft | 23 kts | 249° |
| 2026-04-16 21:49 | 50.03729 | 8.53929 | 354 ft | 24 kts | 250° |
| 2026-04-16 21:50 | 50.03670 | 8.53679 | 357 ft | 25 kts | 249° |
| 2026-04-16 21:50 | 50.03604 | 8.53422 | 353 ft | 26 kts | 249° |
| 2026-04-16 21:50 | 50.03539 | 8.53150 | 348 ft | 27 kts | 250° |
| 2026-04-16 21:50 | 50.03476 | 8.52889 | 337 ft | 27 kts | 249° |
| 2026-04-16 21:51 | 50.03427 | 8.52704 | 334 ft | 14 kts | 249° |
| 2026-04-16 21:51 | 50.03394 | 8.52604 | 335 ft | 6 kts | 214° |
| 2026-04-16 21:51 | 50.03357 | 8.52596 | 337 ft | 7 kts | 181° |
| 2026-04-16 21:51 | 50.03325 | 8.52596 | 337 ft | 14 kts | 180° |
| 2026-04-16 21:52 | 50.03003 | 8.52597 | 336 ft | 80 kts | 179° |
| 2026-04-16 21:52 | 50.02247 | 8.52608 | 336 ft | 136 kts | 179° |
| 2026-04-16 21:52 | 50.01144 | 8.52620 | 380 ft | 178 kts | 179° |
| 2026-04-16 21:52 | 49.99855 | 8.52669 | 893 ft | 189 kts | 178° |
| 2026-04-16 21:53 | 49.98512 | 8.52774 | 1523 ft | 199 kts | 178° |
| 2026-04-16 21:53 | 49.97062 | 8.52936 | 2006 ft | 224 kts | 178° |
| 2026-04-16 21:53 | 49.95432 | 8.53110 | 2850 ft | 233 kts | 178° |
| 2026-04-16 21:53 | 49.94030 | 8.53233 | 3930 ft | 232 kts | 179° |
| 2026-04-16 21:54 | 49.92413 | 8.53343 | 5029 ft | 233 kts | 180° |
| 2026-04-16 21:54 | 49.90781 | 8.53398 | 6086 ft | 235 kts | 181° |
| 2026-04-16 21:54 | 49.89134 | 8.53464 | 7094 ft | 239 kts | 181° |
| 2026-04-16 21:54 | 49.87476 | 8.53550 | 8092 ft | 240 kts | 180° |
| 2026-04-16 21:55 | 49.85800 | 8.53649 | 9099 ft | 243 kts | 180° |
| 2026-04-16 21:55 | 49.84083 | 8.53758 | 10067 ft | 246 kts | 180° |
| 2026-04-16 21:55 | 49.82367 | 8.53871 | 10919 ft | 250 kts | 180° |
| 2026-04-16 21:55 | 49.80594 | 8.53989 | 11733 ft | 257 kts | 180° |
| 2026-04-16 21:56 | 49.78798 | 8.54099 | 12555 ft | 262 kts | 182° |
| 2026-04-16 21:56 | 49.76964 | 8.54005 | 13259 ft | 272 kts | 188° |
| 2026-04-16 21:56 | 49.74999 | 8.53754 | 13655 ft | 294 kts | 189° |
| 2026-04-16 21:56 | 49.72876 | 8.53456 | 14034 ft | 315 kts | 189° |
| 2026-04-16 21:57 | 49.70647 | 8.53150 | 14370 ft | 333 kts | 188° |
| 2026-04-16 21:57 | 49.68275 | 8.52831 | 14712 ft | 351 kts | 188° |
| 2026-04-16 21:57 | 49.65754 | 8.52498 | 15051 ft | 369 kts | 188° |
| 2026-04-16 21:57 | 49.63168 | 8.52157 | 15485 ft | 382 kts | 188° |
| 2026-04-16 21:58 | 49.60494 | 8.51807 | 16125 ft | 388 kts | 188° |
| 2026-04-16 21:58 | 49.57787 | 8.51454 | 16822 ft | 394 kts | 188° |
| 2026-04-16 21:58 | 49.55019 | 8.51092 | 17519 ft | 399 kts | 188° |
| 2026-04-16 21:58 | 49.52241 | 8.50729 | 18228 ft | 403 kts | 188° |
| 2026-04-16 21:59 | 49.49443 | 8.50362 | 18888 ft | 408 kts | 188° |
| 2026-04-16 21:59 | 49.46584 | 8.49988 | 19495 ft | 413 kts | 188° |
| 2026-04-16 21:59 | 49.43719 | 8.49613 | 20111 ft | 417 kts | 188° |
| 2026-04-16 21:59 | 49.40801 | 8.49231 | 20718 ft | 421 kts | 188° |
| 2026-04-16 22:00 | 49.37891 | 8.48851 | 21298 ft | 425 kts | 188° |
| 2026-04-16 22:00 | 49.34933 | 8.48465 | 21884 ft | 429 kts | 188° |
| 2026-04-16 22:00 | 49.31951 | 8.48077 | 22460 ft | 433 kts | 188° |
| 2026-04-16 22:00 | 49.28935 | 8.47689 | 23012 ft | 437 kts | 189° |
| 2026-04-16 22:01 | 49.25862 | 8.47288 | 23568 ft | 441 kts | 189° |
| 2026-04-16 22:01 | 49.22812 | 8.46889 | 24045 ft | 445 kts | 189° |
| 2026-04-16 22:01 | 49.19727 | 8.46488 | 24480 ft | 448 kts | 189° |
| 2026-04-16 22:01 | 49.16597 | 8.46082 | 24942 ft | 451 kts | 189° |
| 2026-04-16 22:02 | 49.13474 | 8.45678 | 25376 ft | 455 kts | 189° |
| 2026-04-16 22:02 | 49.10292 | 8.45267 | 25811 ft | 458 kts | 189° |
| 2026-04-16 22:02 | 49.07119 | 8.44774 | 26236 ft | 459 kts | 193° |
| 2026-04-16 22:02 | 49.04000 | 8.43900 | 26658 ft | 460 kts | 195° |
| 2026-04-16 22:03 | 49.00830 | 8.42881 | 27081 ft | 462 kts | 197° |
| 2026-04-16 22:03 | 48.97686 | 8.41806 | 27483 ft | 464 kts | 197° |
| 2026-04-16 22:03 | 48.94545 | 8.40702 | 27883 ft | 467 kts | 197° |
| 2026-04-16 22:03 | 48.91387 | 8.39584 | 28280 ft | 470 kts | 197° |
| 2026-04-16 22:04 | 48.88196 | 8.38458 | 28662 ft | 473 kts | 197° |
| 2026-04-16 22:04 | 48.84993 | 8.37336 | 29025 ft | 475 kts | 197° |
| 2026-04-16 22:04 | 48.81764 | 8.36213 | 29403 ft | 478 kts | 197° |
| 2026-04-16 22:04 | 48.78487 | 8.35077 | 29768 ft | 481 kts | 197° |
| 2026-04-16 22:05 | 48.75238 | 8.33927 | 30096 ft | 483 kts | 198° |
| 2026-04-16 22:05 | 48.71977 | 8.32737 | 30361 ft | 486 kts | 198° |
| 2026-04-16 22:05 | 48.68644 | 8.31508 | 30585 ft | 489 kts | 198° |
| 2026-04-16 22:05 | 48.65342 | 8.30289 | 30858 ft | 492 kts | 198° |
| 2026-04-16 22:06 | 48.62038 | 8.29075 | 31151 ft | 494 kts | 198° |
| 2026-04-16 22:06 | 48.52073 | 8.25549 | 31215 ft | 488 kts | 194° |
| 2026-04-16 22:07 | 48.45264 | 8.25334 | 31219 ft | 498 kts | 177° |
| 2026-04-16 22:07 | 48.39533 | 8.26529 | 31219 ft | 500 kts | 174° |
| 2026-04-16 22:08 | 48.32652 | 8.28260 | 31218 ft | 501 kts | 174° |
| 2026-04-16 22:08 | 48.25722 | 8.30012 | 31471 ft | 506 kts | 174° |
| 2026-04-16 22:09 | 48.22249 | 8.30868 | 31755 ft | 508 kts | 174° |
| 2026-04-16 22:09 | 48.18780 | 8.31710 | 32043 ft | 510 kts | 174° |
| 2026-04-16 22:09 | 48.15243 | 8.32565 | 32349 ft | 511 kts | 174° |
| 2026-04-16 22:09 | 48.11746 | 8.33413 | 32657 ft | 512 kts | 174° |
| 2026-04-16 22:10 | 48.08227 | 8.34265 | 32975 ft | 513 kts | 174° |
| 2026-04-16 22:10 | 48.04710 | 8.35115 | 33285 ft | 514 kts | 174° |
| 2026-04-16 22:10 | 48.01144 | 8.35977 | 33603 ft | 515 kts | 174° |
| 2026-04-16 22:10 | 47.97642 | 8.36822 | 33898 ft | 516 kts | 174° |
| 2026-04-16 22:11 | 47.94089 | 8.37679 | 34193 ft | 517 kts | 174° |
| 2026-04-16 22:11 | 47.90558 | 8.38529 | 34457 ft | 517 kts | 173° |
| 2026-04-16 22:11 | 47.87018 | 8.39381 | 34838 ft | 514 kts | 173° |
| 2026-04-16 22:11 | 47.83471 | 8.40234 | 35198 ft | 512 kts | 174° |
| 2026-04-16 22:12 | 47.79961 | 8.41076 | 35536 ft | 511 kts | 174° |
| 2026-04-16 22:12 | 47.76471 | 8.41911 | 35843 ft | 510 kts | 174° |
| 2026-04-16 22:12 | 47.72979 | 8.42745 | 36153 ft | 509 kts | 173° |
| 2026-04-16 22:12 | 47.69461 | 8.43584 | 36479 ft | 507 kts | 173° |
| 2026-04-16 22:13 | 47.66007 | 8.44356 | 36796 ft | 505 kts | 175° |
| 2026-04-16 22:13 | 47.62506 | 8.44932 | 37096 ft | 503 kts | 177° |
| 2026-04-16 22:13 | 47.59039 | 8.45394 | 37383 ft | 502 kts | 178° |
| 2026-04-16 22:13 | 47.55568 | 8.45827 | 37688 ft | 501 kts | 178° |
| 2026-04-16 22:14 | 47.52064 | 8.46272 | 37955 ft | 501 kts | 178° |
| 2026-04-16 22:14 | 47.48613 | 8.46732 | 38205 ft | 501 kts | 177° |
| 2026-04-16 22:14 | 47.45152 | 8.47215 | 38495 ft | 500 kts | 177° |
| 2026-04-16 22:14 | 47.41716 | 8.47708 | 38785 ft | 499 kts | 177° |
| 2026-04-16 22:15 | 47.38235 | 8.48216 | 39038 ft | 498 kts | 177° |
| 2026-04-16 22:15 | 47.34801 | 8.48720 | 39198 ft | 499 kts | 176° |
| 2026-04-16 22:15 | 47.27863 | 8.49737 | 39235 ft | 500 kts | 177° |
| 2026-04-16 22:16 | 47.20956 | 8.50753 | 39223 ft | 498 kts | 176° |
| 2026-04-16 22:16 | 47.14035 | 8.51760 | 39231 ft | 498 kts | 177° |
| 2026-04-16 22:17 | 47.07156 | 8.52753 | 39226 ft | 499 kts | 176° |
| 2026-04-16 22:17 | 47.00225 | 8.53760 | 39227 ft | 499 kts | 176° |
| 2026-04-16 22:18 | 46.93350 | 8.54751 | 39210 ft | 498 kts | 176° |
| 2026-04-16 22:18 | 46.86445 | 8.55740 | 39216 ft | 498 kts | 176° |
| 2026-04-16 22:19 | 46.79563 | 8.56724 | 39212 ft | 498 kts | 176° |
| 2026-04-16 22:19 | 46.72687 | 8.57709 | 39191 ft | 496 kts | 176° |
| 2026-04-16 22:20 | 46.65787 | 8.58695 | 39191 ft | 496 kts | 176° |
| 2026-04-16 22:20 | 46.58942 | 8.59665 | 39163 ft | 496 kts | 176° |
| 2026-04-16 22:21 | 46.52048 | 8.60649 | 39171 ft | 497 kts | 176° |
| 2026-04-16 22:21 | 46.45194 | 8.61620 | 39147 ft | 496 kts | 176° |
| 2026-04-16 22:22 | 46.38316 | 8.62589 | 39134 ft | 496 kts | 176° |
| 2026-04-16 22:22 | 46.31419 | 8.63554 | 39102 ft | 496 kts | 176° |
| 2026-04-16 22:23 | 46.24573 | 8.64518 | 39085 ft | 495 kts | 176° |
| 2026-04-16 22:23 | 46.17686 | 8.65485 | 39081 ft | 497 kts | 176° |
| 2026-04-16 22:24 | 46.10845 | 8.66227 | 39078 ft | 494 kts | 184° |
| 2026-04-16 22:24 | 46.04021 | 8.65258 | 39073 ft | 491 kts | 190° |
| 2026-04-16 22:25 | 45.97277 | 8.63889 | 39085 ft | 492 kts | 191° |
| 2026-04-16 22:25 | 45.90489 | 8.62451 | 39086 ft | 492 kts | 191° |
| 2026-04-16 22:26 | 45.83913 | 8.61088 | 39081 ft | 492 kts | 190° |
| 2026-04-16 22:26 | 45.77432 | 8.59768 | 39097 ft | 492 kts | 190° |
| 2026-04-16 22:27 | 45.70628 | 8.58392 | 39099 ft | 492 kts | 190° |
| 2026-04-16 22:27 | 45.63841 | 8.57023 | 39098 ft | 492 kts | 190° |
| 2026-04-16 22:28 | 45.57081 | 8.55661 | 39102 ft | 492 kts | 190° |
| 2026-04-16 22:28 | 45.50312 | 8.54299 | 39102 ft | 492 kts | 190° |
| 2026-04-16 22:29 | 45.43500 | 8.52932 | 39097 ft | 492 kts | 190° |
| 2026-04-16 22:29 | 45.36738 | 8.51580 | 39099 ft | 492 kts | 190° |
| 2026-04-16 22:30 | 45.29958 | 8.50229 | 39099 ft | 492 kts | 190° |
| 2026-04-16 22:30 | 45.23166 | 8.48878 | 39105 ft | 492 kts | 190° |
| 2026-04-16 22:31 | 45.16399 | 8.47533 | 39111 ft | 493 kts | 189° |
| 2026-04-16 22:31 | 45.09581 | 8.46182 | 39110 ft | 493 kts | 189° |
| 2026-04-16 22:32 | 45.02789 | 8.44841 | 39107 ft | 493 kts | 189° |
| 2026-04-16 22:32 | 44.99380 | 8.44168 | 38980 ft | 493 kts | 189° |
| 2026-04-16 22:32 | 44.96018 | 8.43506 | 38749 ft | 493 kts | 189° |
| 2026-04-16 22:33 | 44.92581 | 8.42828 | 38467 ft | 493 kts | 189° |
| 2026-04-16 22:33 | 44.89205 | 8.42164 | 38131 ft | 492 kts | 189° |
| 2026-04-16 22:33 | 44.85844 | 8.41504 | 37619 ft | 491 kts | 189° |
| 2026-04-16 22:33 | 44.82465 | 8.40843 | 37040 ft | 491 kts | 189° |
| 2026-04-16 22:34 | 44.79039 | 8.40172 | 36445 ft | 492 kts | 189° |
| 2026-04-16 22:34 | 44.75689 | 8.39517 | 35849 ft | 493 kts | 189° |
| 2026-04-16 22:34 | 44.72264 | 8.38847 | 35173 ft | 495 kts | 189° |
| 2026-04-16 22:34 | 44.68827 | 8.38176 | 34463 ft | 499 kts | 189° |
| 2026-04-16 22:35 | 44.65390 | 8.37506 | 33651 ft | 503 kts | 189° |
| 2026-04-16 22:35 | 44.61886 | 8.36823 | 32810 ft | 506 kts | 189° |
| 2026-04-16 22:35 | 44.58401 | 8.36146 | 31999 ft | 507 kts | 188° |
| 2026-04-16 22:35 | 44.54917 | 8.35470 | 31194 ft | 508 kts | 188° |
| 2026-04-16 22:36 | 44.51414 | 8.34791 | 30365 ft | 509 kts | 188° |
| 2026-04-16 22:36 | 44.47913 | 8.34113 | 29496 ft | 509 kts | 188° |
| 2026-04-16 22:36 | 44.44429 | 8.33439 | 28814 ft | 504 kts | 188° |
| 2026-04-16 22:36 | 44.40988 | 8.32776 | 28219 ft | 498 kts | 188° |
| 2026-04-16 22:37 | 44.37557 | 8.32115 | 27606 ft | 492 kts | 188° |
| 2026-04-16 22:37 | 44.34186 | 8.31290 | 27008 ft | 485 kts | 196° |
| 2026-04-16 22:37 | 44.31086 | 8.29603 | 26402 ft | 478 kts | 210° |
| 2026-04-16 22:37 | 44.28442 | 8.26909 | 25799 ft | 469 kts | 226° |
| 2026-04-16 22:38 | 44.26303 | 8.23498 | 25203 ft | 462 kts | 234° |
| 2026-04-16 22:38 | 44.24403 | 8.19928 | 24617 ft | 457 kts | 237° |
| 2026-04-16 22:38 | 44.22619 | 8.16300 | 24049 ft | 452 kts | 238° |
| 2026-04-16 22:38 | 44.20894 | 8.12687 | 23431 ft | 449 kts | 238° |
| 2026-04-16 22:39 | 44.19153 | 8.09037 | 22793 ft | 444 kts | 238° |
| 2026-04-16 22:39 | 44.17443 | 8.05496 | 22218 ft | 439 kts | 238° |
| 2026-04-16 22:39 | 44.15741 | 8.02016 | 21654 ft | 434 kts | 237° |
| 2026-04-16 22:39 | 44.14041 | 7.98582 | 21096 ft | 430 kts | 237° |
| 2026-04-16 22:40 | 44.12332 | 7.95152 | 20498 ft | 426 kts | 237° |
| 2026-04-16 22:40 | 44.10657 | 7.91803 | 19943 ft | 422 kts | 237° |
| 2026-04-16 22:40 | 44.08983 | 7.88472 | 19385 ft | 419 kts | 236° |
| 2026-04-16 22:40 | 44.07327 | 7.85178 | 18824 ft | 415 kts | 236° |
| 2026-04-16 22:41 | 44.05647 | 7.81965 | 18492 ft | 407 kts | 232° |
| 2026-04-16 22:41 | 44.03654 | 7.79183 | 18487 ft | 411 kts | 220° |
| 2026-04-16 22:41 | 44.01194 | 7.77125 | 18487 ft | 416 kts | 203° |
| 2026-04-16 22:41 | 43.98371 | 7.76187 | 18480 ft | 416 kts | 183° |
| 2026-04-16 22:42 | 43.95531 | 7.76555 | 18411 ft | 416 kts | 165° |
| 2026-04-16 22:42 | 43.92879 | 7.78194 | 18141 ft | 413 kts | 144° |
| 2026-04-16 22:42 | 43.90799 | 7.80893 | 17897 ft | 411 kts | 127° |
| 2026-04-16 22:42 | 43.89046 | 7.83970 | 17626 ft | 409 kts | 127° |
| 2026-04-16 22:43 | 43.87226 | 7.87016 | 17366 ft | 408 kts | 129° |
| 2026-04-16 22:43 | 43.85337 | 7.89910 | 17100 ft | 407 kts | 132° |
| 2026-04-16 22:43 | 43.83353 | 7.92676 | 16838 ft | 405 kts | 135° |
| 2026-04-16 22:43 | 43.81248 | 7.95322 | 16593 ft | 403 kts | 138° |
| 2026-04-16 22:44 | 43.79082 | 7.97757 | 16338 ft | 402 kts | 141° |
| 2026-04-16 22:44 | 43.76831 | 7.99994 | 16084 ft | 401 kts | 145° |
| 2026-04-16 22:44 | 43.74468 | 8.02032 | 15846 ft | 400 kts | 149° |
| 2026-04-16 22:44 | 43.71992 | 8.03837 | 15612 ft | 398 kts | 154° |
| 2026-04-16 22:45 | 43.69463 | 8.05336 | 15363 ft | 397 kts | 159° |
| 2026-04-16 22:45 | 43.66851 | 8.06511 | 15115 ft | 396 kts | 164° |
| 2026-04-16 22:45 | 43.64183 | 8.07330 | 14882 ft | 394 kts | 168° |
| 2026-04-16 22:45 | 43.61524 | 8.08313 | 14634 ft | 392 kts | 159° |
| 2026-04-16 22:46 | 43.58965 | 8.09575 | 14398 ft | 391 kts | 161° |
| 2026-04-16 22:46 | 43.56370 | 8.10572 | 14163 ft | 390 kts | 168° |
| 2026-04-16 22:46 | 43.53684 | 8.10951 | 13933 ft | 389 kts | 180° |
| 2026-04-16 22:46 | 43.51017 | 8.10440 | 13672 ft | 387 kts | 196° |
| 2026-04-16 22:47 | 43.48608 | 8.08792 | 13396 ft | 385 kts | 218° |
| 2026-04-16 22:47 | 43.46666 | 8.06275 | 13148 ft | 383 kts | 227° |
| 2026-04-16 22:47 | 43.44805 | 8.03652 | 12887 ft | 382 kts | 226° |
| 2026-04-16 22:47 | 43.42925 | 8.01139 | 12638 ft | 381 kts | 224° |
| 2026-04-16 22:48 | 43.40993 | 7.98637 | 12376 ft | 379 kts | 225° |
| 2026-04-16 22:48 | 43.39346 | 7.95804 | 12102 ft | 376 kts | 242° |
| 2026-04-16 22:48 | 43.38316 | 7.92581 | 11783 ft | 373 kts | 251° |
| 2026-04-16 22:48 | 43.37581 | 7.89155 | 11456 ft | 370 kts | 259° |
| 2026-04-16 22:49 | 43.37075 | 7.85710 | 11130 ft | 362 kts | 261° |
| 2026-04-16 22:49 | 43.36613 | 7.82375 | 10830 ft | 353 kts | 261° |
| 2026-04-16 22:49 | 43.36189 | 7.79085 | 10514 ft | 345 kts | 263° |
| 2026-04-16 22:49 | 43.35814 | 7.75861 | 10201 ft | 337 kts | 263° |
| 2026-04-16 22:50 | 43.35449 | 7.72726 | 9872 ft | 331 kts | 263° |
| 2026-04-16 22:50 | 43.35087 | 7.69630 | 9543 ft | 324 kts | 263° |
| 2026-04-16 22:50 | 43.34730 | 7.66586 | 9207 ft | 318 kts | 263° |
| 2026-04-16 22:50 | 43.34382 | 7.63616 | 8874 ft | 313 kts | 263° |
| 2026-04-16 22:51 | 43.34119 | 7.60666 | 8538 ft | 308 kts | 268° |
| 2026-04-16 22:51 | 43.34006 | 7.57774 | 8212 ft | 303 kts | 270° |
| 2026-04-16 22:51 | 43.33923 | 7.54887 | 7886 ft | 299 kts | 270° |
| 2026-04-16 22:51 | 43.33847 | 7.52036 | 7561 ft | 296 kts | 270° |
| 2026-04-16 22:52 | 43.33775 | 7.49246 | 7244 ft | 292 kts | 270° |
| 2026-04-16 22:52 | 43.33706 | 7.46486 | 6931 ft | 289 kts | 270° |
| 2026-04-16 22:52 | 43.33641 | 7.43745 | 6619 ft | 286 kts | 270° |
| 2026-04-16 22:52 | 43.33578 | 7.40998 | 6290 ft | 283 kts | 270° |
| 2026-04-16 22:53 | 43.33560 | 7.38321 | 5963 ft | 279 kts | 275° |
| 2026-04-16 22:53 | 43.33807 | 7.35709 | 5635 ft | 275 kts | 282° |
| 2026-04-16 22:53 | 43.34163 | 7.33116 | 5302 ft | 273 kts | 283° |
| 2026-04-16 22:53 | 43.34525 | 7.30581 | 4988 ft | 271 kts | 283° |
| 2026-04-16 22:54 | 43.34888 | 7.28050 | 4656 ft | 269 kts | 283° |
| 2026-04-16 22:54 | 43.35249 | 7.25550 | 4324 ft | 268 kts | 283° |
| 2026-04-16 22:54 | 43.35612 | 7.23041 | 4046 ft | 267 kts | 283° |
| 2026-04-16 22:54 | 43.35976 | 7.20534 | 3975 ft | 268 kts | 283° |
| 2026-04-16 22:55 | 43.36219 | 7.18856 | 3968 ft | 269 kts | 283° |
| 2026-04-16 22:55 | 43.36587 | 7.16316 | 3965 ft | 269 kts | 283° |
| 2026-04-16 22:55 | 43.36953 | 7.13796 | 3972 ft | 269 kts | 283° |
| 2026-04-16 22:55 | 43.37371 | 7.11319 | 3965 ft | 268 kts | 288° |
| 2026-04-16 22:56 | 43.38110 | 7.09004 | 3970 ft | 265 kts | 304° |
| 2026-04-16 22:56 | 43.39229 | 7.06974 | 3967 ft | 264 kts | 312° |
| 2026-04-16 22:56 | 43.40441 | 7.05109 | 3968 ft | 264 kts | 314° |
| 2026-04-16 22:56 | 43.41700 | 7.03248 | 3967 ft | 264 kts | 313° |
| 2026-04-16 22:57 | 43.42954 | 7.01423 | 3967 ft | 261 kts | 313° |
| 2026-04-16 22:57 | 43.44166 | 6.99667 | 3958 ft | 246 kts | 313° |
| 2026-04-16 22:57 | 43.45318 | 6.98031 | 3955 ft | 231 kts | 317° |
| 2026-04-16 22:57 | 43.46711 | 6.97189 | 3957 ft | 218 kts | 358° |
| 2026-04-16 22:58 | 43.48171 | 6.97663 | 3964 ft | 213 kts | 24° |
| 2026-04-16 22:58 | 43.49395 | 6.98783 | 3962 ft | 213 kts | 41° |
| 2026-04-16 22:58 | 43.50453 | 7.00209 | 3963 ft | 214 kts | 44° |
| 2026-04-16 22:58 | 43.51523 | 7.01660 | 3818 ft | 215 kts | 43° |
| 2026-04-16 22:59 | 43.52599 | 7.03112 | 3539 ft | 217 kts | 44° |
| 2026-04-16 22:59 | 43.53658 | 7.04567 | 3252 ft | 214 kts | 45° |
| 2026-04-16 22:59 | 43.54686 | 7.05975 | 2914 ft | 201 kts | 45° |
| 2026-04-16 22:59 | 43.55583 | 7.07202 | 2665 ft | 189 kts | 45° |
| 2026-04-16 23:00 | 43.56426 | 7.08359 | 2423 ft | 184 kts | 45° |
| 2026-04-16 23:00 | 43.57293 | 7.09550 | 2196 ft | 172 kts | 46° |
| 2026-04-16 23:00 | 43.58124 | 7.10690 | 1972 ft | 166 kts | 46° |
| 2026-04-16 23:00 | 43.58941 | 7.11814 | 1739 ft | 166 kts | 45° |
| 2026-04-16 23:01 | 43.59639 | 7.12774 | 1560 ft | 165 kts | 45° |
| 2026-04-16 23:01 | 43.60430 | 7.13861 | 1344 ft | 153 kts | 45° |
| 2026-04-16 23:01 | 43.61151 | 7.14851 | 1146 ft | 141 kts | 45° |
| 2026-04-16 23:01 | 43.61825 | 7.15778 | 979 ft | 133 kts | 45° |
| 2026-04-16 23:02 | 43.62476 | 7.16678 | 796 ft | 134 kts | 46° |
| 2026-04-16 23:02 | 43.63125 | 7.17606 | 654 ft | 134 kts | 47° |
| 2026-04-16 23:02 | 43.63806 | 7.18520 | 463 ft | 136 kts | 43° |
| 2026-04-16 23:02 | 43.64486 | 7.19410 | 291 ft | 136 kts | 49° |
| 2026-04-16 23:03 | 43.65153 | 7.20360 | 89 ft | 138 kts | 46° |
| 2026-04-16 23:03 | 43.65788 | 7.21238 | 27 ft | 111 kts | 45° |
| 2026-04-16 23:03 | 43.66212 | 7.21820 | 30 ft | 59 kts | 45° |
| 2026-04-16 23:03 | 43.66379 | 7.21993 | 26 ft | 22 kts | 20° |
| 2026-04-16 23:04 | 43.66485 | 7.22043 | 27 ft | 10 kts | 18° |
| 2026-04-16 23:04 | 43.66536 | 7.22041 | 25 ft | 8 kts | 340° |
| 2026-04-16 23:04 | 43.66552 | 7.21980 | 28 ft | 7 kts | 254° |
| 2026-04-16 23:04 | 43.66516 | 7.21924 | 28 ft | 8 kts | 223° |
| 2026-04-16 23:05 | 43.66475 | 7.21866 | 30 ft | 10 kts | 225° |
| 2026-04-16 23:05 | 43.66421 | 7.21791 | 30 ft | 12 kts | 225° |
| 2026-04-16 23:05 | 43.66357 | 7.21700 | 31 ft | 14 kts | 225° |
| 2026-04-16 23:05 | 43.66325 | 7.21607 | 27 ft | 8 kts | 282° |
| 2026-04-16 23:06 | 43.66362 | 7.21545 | 30 ft | 9 kts | 309° |
| 2026-04-16 23:06 | 43.66371 | 7.21489 | 29 ft | 4 kts | 250° |
| 2026-04-16 23:06 | 43.66355 | 7.21440 | 27 ft | 7 kts | 249° |
| 2026-04-16 23:06 | 43.66345 | 7.21375 | 30 ft | 9 kts | 259° |
| 2026-04-16 23:07 | 43.66335 | 7.21283 | 26 ft | 11 kts | 261° |
| 2026-04-16 23:07 | 43.66322 | 7.21177 | 25 ft | 14 kts | 261° |
| 2026-04-16 23:07 | 43.66308 | 7.21048 | 26 ft | 15 kts | 264° |
| 2026-04-16 23:07 | 43.66319 | 7.20901 | 25 ft | 16 kts | 263° |
| 2026-04-16 23:08 | 43.66297 | 7.20777 | 29 ft | 9 kts | 230° |
| 2026-04-16 23:08 | 43.66244 | 7.20765 | 27 ft | 9 kts | 173° |
| 2026-04-16 23:08 | 43.66192 | 7.20771 | 25 ft | 4 kts | 191° |
| 2026-04-16 23:08 | 43.66180 | 7.20748 | 31 ft | 3 kts | 242° |
| 2026-04-16 23:09 | 43.66174 | 7.20707 | 30 ft | 5 kts | 261° |
| 2026-04-16 23:09 | 43.66171 | 7.20677 | 29 ft | 1 kts | 261° |
| 2026-04-16 23:09 | 43.66171 | 7.20676 | 29 ft | 0 kts | 261° |